Terminal Aerodrome Forecast
Issued by NWS

Current Version | Previous Version | Text Only | Print | Product List | Glossary Off
Versions: 1 2 3 4 5 6 7 8 9 10 11 12 13 14 15 16 17 18 19

000
FTUS41 KILN 101126
TAFLUK
TAF
KLUK 101126Z 1012/1112 23010KT P6SM SCT150
     FM101500 22012G20KT P6SM BKN100
     FM102200 23007KT P6SM SCT040 BKN150
     FM110600 27003KT P6SM FEW040 SCT200=

USA.gov is the U.S. government's official web portal to all federal, state and local government web resources and services.